Terminal Aerodrome Forecast
Issued by NWS

Home | Current Version | Previous Version | Text Only | Print | Product List | Glossary On
Versions: 1 2 3 4 5 6 7 8 9 10 11 12 13 14 15 16 17 18 19 20 21 22 23 24 25
000
FTUS42 KMFL 230305 AAA
TAFTMB
TAF AMD
KTMB 230305Z 2303/2324 11008KT P6SM VCSH SCT025 SCT050 BKN250
     FM231500 14012G22KT P6SM SCT050 BKN250
     FM232300 13008KT P6SM FEW030 BKN250=

USA.gov is the U.S. government's official web portal to all federal, state and local government web resources and services.